Airfield :
LOGIN :

Register | Disclaimer

   EN    FR    IT 

 










Legend :    VFR   Marginal VFR   IFR   Intensive IFR   Very Intensive IFR
Visi :
Ceiling :
>= 8 km
>= 3000ft
5 to 8 km
1000 to 3000 ft
1500m to 5 km
500 to 1000 ft
800 to 1500m
200 to 500 ft
< 800m
< 200 ft
Symbols :   Thunderstorms  Fog  Heavy snow  Heavy precipitations  Wind > 20 kt
SIGMETs :     Misc.  Thunderstorms  Icing  Turbulence  Mountain Waves  Volcanic Ashes







- Airport Elevation : 84 ft
- Download approach charts


LFBC - Cazaux

CURRENT METAR :
  • 230330Z AUTO VRB02KT CAVOK 10/09 Q1016 TEMPO 0500 BCFG

EXPIRED METARs :
  • 230300Z AUTO 30001KT CAVOK 11/09 Q1016 TEMPO 0500 BCFG
  • 230230Z AUTO 00000KT CAVOK 11/10 Q1016 TEMPO 0500 BCFG
  • 230200Z AUTO 00000KT CAVOK 12/10 Q1017 TEMPO 0500 BCFG
  • 230130Z AUTO 34002KT CAVOK 12/10 Q1017 TEMPO 0500 BCFG
  • 230100Z AUTO 36003KT CAVOK 13/11 Q1017 NOSIG
  • 230030Z AUTO 34003KT CAVOK 13/10 Q1017 NOSIG

TAF TAF LFBC
Valid from the 23 at 03:00 until the 24 at 03:00 UTC


230200Z 2303/2403 VRB02KT CAVOK
TEMPO 2303/2306 0500 BCFG
BECMG 2311/2313 26012KT
TEMPO 2313/2403 3000 SHRA BKN040TCU
BECMG 2322/2324 BKN008
No reported NOTAMs for that airfield.



MET'MAP, your aeronautical weather chart ! - Copyright ORBIFLY December 2007 - Disclaimer

ORBIFLY MET'MAP TEAM :

Programming & Development : Alexandra Zaïnal
Concept & Development : Baudouin d'Aumeries
Co-Development & Prog : Marc-Olivier Méhu
Technical & hardware support : Manuel Goepfert

Contact : metmap@orbifly.com




SOURCES & CREDITS :

   NOAA